sensor_id;sensor_type;location;lat;lon;timestamp;pressure;altitude;pressure_sealevel;temperature;humidity
9035;BME280;4552;43.422;24.592;2024-03-08T00:00:05;100213.25;;;5.42;100.00
9035;BME280;4552;43.422;24.592;2024-03-08T00:02:37;100220.03;;;5.31;100.00
9035;BME280;4552;43.422;24.592;2024-03-08T00:05:06;100218.38;;;5.36;100.00
9035;BME280;4552;43.422;24.592;2024-03-08T00:07:34;100229.44;;;5.24;100.00
9035;BME280;4552;43.422;24.592;2024-03-08T00:10:01;100217.09;;;5.02;100.00
9035;BME280;4552;43.422;24.592;2024-03-08T00:12:28;100217.13;;;5.07;100.00
9035;BME280;4552;43.422;24.592;2024-03-08T00:14:56;100208.63;;;5.18;100.00
9035;BME280;4552;43.422;24.592;2024-03-08T00:17:24;100211.22;;;5.20;100.00
9035;BME280;4552;43.422;24.592;2024-03-08T00:19:52;100238.94;;;5.21;100.00
9035;BME280;4552;43.422;24.592;2024-03-08T00:22:19;100222.31;;;5.07;100.00
9035;BME280;4552;43.422;24.592;2024-03-08T00:24:47;100233.59;;;5.10;100.00
9035;BME280;4552;43.422;24.592;2024-03-08T00:27:16;100218.69;;;4.93;100.00
9035;BME280;4552;43.422;24.592;2024-03-08T00:29:43;100230.66;;;4.85;100.00
9035;BME280;4552;43.422;24.592;2024-03-08T00:32:10;100249.75;;;4.90;100.00
9035;BME280;4552;43.422;24.592;2024-03-08T00:34:39;100224.63;;;4.84;100.00
9035;BME280;4552;43.422;24.592;2024-03-08T01:04:14;100253.81;;;4.73;100.00
9035;BME280;4552;43.422;24.592;2024-03-08T01:06:41;100226.09;;;4.66;100.00
9035;BME280;4552;43.422;24.592;2024-03-08T01:09:12;100239.16;;;4.73;100.00
9035;BME280;4552;43.422;24.592;2024-03-08T01:11:39;100242.91;;;4.95;100.00
9035;BME280;4552;43.422;24.592;2024-03-08T01:14:07;100238.41;;;4.83;100.00
9035;BME280;4552;43.422;24.592;2024-03-08T01:16:34;100242.91;;;4.95;100.00
9035;BME280;4552;43.422;24.592;2024-03-08T01:19:01;100235.06;;;4.90;100.00
9035;BME280;4552;43.422;24.592;2024-03-08T01:21:30;100229.84;;;4.87;100.00
9035;BME280;4552;43.422;24.592;2024-03-08T01:23:57;100236.00;;;4.95;100.00
9035;BME280;4552;43.422;24.592;2024-03-08T01:26:24;100231.75;;;5.02;100.00
9035;BME280;4552;43.422;24.592;2024-03-08T01:28:51;100227.41;;;4.99;100.00
9035;BME280;4552;43.422;24.592;2024-03-08T01:31:18;100251.59;;;4.98;100.00
9035;BME280;4552;43.422;24.592;2024-03-08T01:33:45;100223.81;;;4.88;100.00
9035;BME280;4552;43.422;24.592;2024-03-08T01:36:12;100248.13;;;4.96;100.00
9035;BME280;4552;43.422;24.592;2024-03-08T01:42:25;100245.03;;;4.63;100.00
9035;BME280;4552;43.422;24.592;2024-03-08T01:44:52;100251.97;;;4.63;100.00
9035;BME280;4552;43.422;24.592;2024-03-08T01:47:20;100253.88;;;4.76;100.00
9035;BME280;4552;43.422;24.592;2024-03-08T01:49:49;100246.91;;;4.72;100.00
9035;BME280;4552;43.422;24.592;2024-03-08T01:52:17;100239.91;;;4.68;100.00
9035;BME280;4552;43.422;24.592;2024-03-08T01:54:48;100244.31;;;4.72;100.00
9035;BME280;4552;43.422;24.592;2024-03-08T01:57:15;100257.38;;;4.78;100.00
9035;BME280;4552;43.422;24.592;2024-03-08T01:59:44;100246.38;;;4.95;100.00
9035;BME280;4552;43.422;24.592;2024-03-08T02:02:11;100247.69;;;4.68;100.00
9035;BME280;4552;43.422;24.592;2024-03-08T02:04:41;100227.66;;;4.55;100.00
9035;BME280;4552;43.422;24.592;2024-03-08T02:07:08;100232.13;;;4.66;100.00
9035;BME280;4552;43.422;24.592;2024-03-08T02:09:35;100242.75;;;4.83;100.00
9035;BME280;4552;43.422;24.592;2024-03-08T02:12:02;100252.25;;;4.84;100.00
9035;BME280;4552;43.422;24.592;2024-03-08T02:14:29;100255.50;;;4.71;100.00
9035;BME280;4552;43.422;24.592;2024-03-08T02:17:01;100235.59;;;4.67;100.00
9035;BME280;4552;43.422;24.592;2024-03-08T02:19:30;100252.91;;;4.69;100.00
9035;BME280;4552;43.422;24.592;2024-03-08T02:22:00;100250.19;;;4.62;100.00
9035;BME280;4552;43.422;24.592;2024-03-08T02:24:30;100255.47;;;4.68;100.00
9035;BME280;4552;43.422;24.592;2024-03-08T02:26:58;100247.59;;;4.60;100.00
9035;BME280;4552;43.422;24.592;2024-03-08T02:29:25;100253.47;;;4.49;100.00
9035;BME280;4552;43.422;24.592;2024-03-08T02:31:52;100254.28;;;4.46;100.00
9035;BME280;4552;43.422;24.592;2024-03-08T02:34:19;100259.69;;;4.60;100.00
9035;BME280;4552;43.422;24.592;2024-03-08T02:56:58;100261.81;;;4.88;100.00
9035;BME280;4552;43.422;24.592;2024-03-08T02:59:25;100262.56;;;4.78;100.00
9035;BME280;4552;43.422;24.592;2024-03-08T03:01:52;100264.88;;;4.60;100.00
9035;BME280;4552;43.422;24.592;2024-03-08T03:04:19;100264.91;;;4.61;100.00
9035;BME280;4552;43.422;24.592;2024-03-08T04:51:02;100325.19;;;5.06;100.00
9035;BME280;4552;43.422;24.592;2024-03-08T04:53:29;100332.06;;;5.04;100.00
9035;BME280;4552;43.422;24.592;2024-03-08T04:55:58;100336.47;;;5.07;100.00
9035;BME280;4552;43.422;24.592;2024-03-08T04:58:26;100348.59;;;5.09;100.00
9035;BME280;4552;43.422;24.592;2024-03-08T05:00:53;100351.19;;;5.11;100.00
9035;BME280;4552;43.422;24.592;2024-03-08T05:03:20;100359.81;;;5.07;100.00
9035;BME280;4552;43.422;24.592;2024-03-08T05:05:47;100339.72;;;4.95;100.00
9035;BME280;4552;43.422;24.592;2024-03-08T05:08:15;100350.19;;;5.01;100.00
9035;BME280;4552;43.422;24.592;2024-03-08T05:10:44;100358.03;;;5.06;100.00
9035;BME280;4552;43.422;24.592;2024-03-08T05:13:12;100363.94;;;4.96;100.00
9035;BME280;4552;43.422;24.592;2024-03-08T05:15:39;100368.63;;;5.18;100.00
9035;BME280;4552;43.422;24.592;2024-03-08T05:18:06;100354.00;;;5.24;100.00
9035;BME280;4552;43.422;24.592;2024-03-08T05:20:33;100376.16;;;5.03;100.00
9035;BME280;4552;43.422;24.592;2024-03-08T05:23:02;100370.00;;;4.95;100.00
9035;BME280;4552;43.422;24.592;2024-03-08T05:25:32;100373.41;;;4.94;100.00
9035;BME280;4552;43.422;24.592;2024-03-08T05:27:59;100388.06;;;4.89;100.00
9035;BME280;4552;43.422;24.592;2024-03-08T05:30:26;100381.06;;;4.86;100.00
9035;BME280;4552;43.422;24.592;2024-03-08T05:32:54;100401.69;;;4.79;100.00
9035;BME280;4552;43.422;24.592;2024-03-08T05:35:22;100388.69;;;4.76;100.00
9035;BME280;4552;43.422;24.592;2024-03-08T05:41:49;100407.44;;;4.60;100.00
9035;BME280;4552;43.422;24.592;2024-03-08T05:44:17;100398.41;;;4.40;100.00
9035;BME280;4552;43.422;24.592;2024-03-08T05:46:44;100403.69;;;4.44;100.00
9035;BME280;4552;43.422;24.592;2024-03-08T05:49:12;100410.03;;;4.61;100.00
9035;BME280;4552;43.422;24.592;2024-03-08T05:51:39;100416.72;;;4.49;100.00
9035;BME280;4552;43.422;24.592;2024-03-08T05:54:09;100397.06;;;4.60;100.00
9035;BME280;4552;43.422;24.592;2024-03-08T05:56:38;100416.19;;;4.68;100.00
9035;BME280;4552;43.422;24.592;2024-03-08T05:59:08;100437.09;;;4.77;100.00
9035;BME280;4552;43.422;24.592;2024-03-08T06:01:35;100419.47;;;4.58;100.00
9035;BME280;4552;43.422;24.592;2024-03-08T06:04:03;100432.63;;;4.68;100.00
9035;BME280;4552;43.422;24.592;2024-03-08T06:06:30;100419.44;;;4.55;100.00
9035;BME280;4552;43.422;24.592;2024-03-08T06:08:58;100427.28;;;4.59;100.00
9035;BME280;4552;43.422;24.592;2024-03-08T06:11:25;100430.22;;;4.79;100.00
9035;BME280;4552;43.422;24.592;2024-03-08T06:13:53;100444.91;;;4.80;100.00
9035;BME280;4552;43.422;24.592;2024-03-08T06:16:26;100423.13;;;4.69;100.00
9035;BME280;4552;43.422;24.592;2024-03-08T06:18:55;100436.72;;;4.56;100.00
9035;BME280;4552;43.422;24.592;2024-03-08T06:21:23;100430.75;;;4.60;100.00
9035;BME280;4552;43.422;24.592;2024-03-08T06:30:34;100449.16;;;4.29;100.00
9035;BME280;4552;43.422;24.592;2024-03-08T06:33:03;100440.00;;;4.46;100.00
9035;BME280;4552;43.422;24.592;2024-03-08T06:35:30;100454.75;;;4.51;100.00
9035;BME280;4552;43.422;24.592;2024-03-08T06:54:47;100459.69;;;4.84;100.00
9035;BME280;4552;43.422;24.592;2024-03-08T06:57:15;100466.50;;;4.79;100.00
9035;BME280;4552;43.422;24.592;2024-03-08T06:59:42;100452.53;;;4.71;100.00
9035;BME280;4552;43.422;24.592;2024-03-08T07:02:10;100467.03;;;4.60;100.00
9035;BME280;4552;43.422;24.592;2024-03-08T07:04:37;100456.91;;;4.72;100.00
9035;BME280;4552;43.422;24.592;2024-03-08T07:07:04;100478.69;;;4.81;100.00
9035;BME280;4552;43.422;24.592;2024-03-08T07:09:35;100460.88;;;4.55;100.00
9035;BME280;4552;43.422;24.592;2024-03-08T07:12:04;100474.09;;;4.68;100.00
9035;BME280;4552;43.422;24.592;2024-03-08T07:14:30;100469.63;;;4.60;100.00
9035;BME280;4552;43.422;24.592;2024-03-08T07:16:57;100476.66;;;4.67;100.00
9035;BME280;4552;43.422;24.592;2024-03-08T07:19:24;100475.63;;;4.59;100.00
9035;BME280;4552;43.422;24.592;2024-03-08T07:21:51;100466.13;;;4.58;100.00
9035;BME280;4552;43.422;24.592;2024-03-08T07:24:20;100468.03;;;4.68;100.00
9035;BME280;4552;43.422;24.592;2024-03-08T07:27:06;100474.50;;;4.91;100.00
9035;BME280;4552;43.422;24.592;2024-03-08T07:29:33;100473.78;;;4.98;100.00
9035;BME280;4552;43.422;24.592;2024-03-08T07:32:00;100484.00;;;4.89;100.00
9035;BME280;4552;43.422;24.592;2024-03-08T07:34:38;100479.63;;;4.88;100.00
9035;BME280;4552;43.422;24.592;2024-03-08T07:37:06;100490.31;;;5.06;100.00
9035;BME280;4552;43.422;24.592;2024-03-08T07:39:37;100493.69;;;5.00;100.00
9035;BME280;4552;43.422;24.592;2024-03-08T07:42:06;100484.16;;;4.98;100.00
9035;BME280;4552;43.422;24.592;2024-03-08T07:44:33;100485.69;;;4.87;100.00
9035;BME280;4552;43.422;24.592;2024-03-08T07:47:00;100498.84;;;4.97;100.00
9035;BME280;4552;43.422;24.592;2024-03-08T07:49:27;100496.25;;;4.97;100.00
9035;BME280;4552;43.422;24.592;2024-03-08T07:51:54;100488.31;;;4.88;100.00
9035;BME280;4552;43.422;24.592;2024-03-08T07:54:21;100485.09;;;5.03;100.00
9035;BME280;4552;43.422;24.592;2024-03-08T08:42:13;100508.25;;;5.43;100.00
9035;BME280;4552;43.422;24.592;2024-03-08T08:44:40;100519.72;;;5.57;100.00
9035;BME280;4552;43.422;24.592;2024-03-08T08:47:07;100504.72;;;5.39;100.00
9035;BME280;4552;43.422;24.592;2024-03-08T08:49:34;100516.69;;;5.30;100.00
9035;BME280;4552;43.422;24.592;2024-03-08T09:12:13;100530.56;;;5.32;100.00
9035;BME280;4552;43.422;24.592;2024-03-08T09:14:40;100527.34;;;5.47;100.00
9035;BME280;4552;43.422;24.592;2024-03-08T09:17:07;100530.22;;;5.63;100.00
9035;BME280;4552;43.422;24.592;2024-03-08T09:19:34;100538.84;;;5.62;100.00
9035;BME280;4552;43.422;24.592;2024-03-08T09:32:08;100524.91;;;5.57;100.00
9035;BME280;4552;43.422;24.592;2024-03-08T09:34:37;100510.31;;;5.64;100.00
9035;BME280;4552;43.422;24.592;2024-03-08T09:37:04;100516.31;;;5.61;100.00
9035;BME280;4552;43.422;24.592;2024-03-08T09:39:32;100528.66;;;5.74;100.00
9035;BME280;4552;43.422;24.592;2024-03-08T09:41:59;100535.34;;;5.60;100.00
9035;BME280;4552;43.422;24.592;2024-03-08T09:44:26;100523.72;;;5.89;100.00
9035;BME280;4552;43.422;24.592;2024-03-08T09:46:54;100531.72;;;6.04;100.00
9035;BME280;4552;43.422;24.592;2024-03-08T09:49:24;100528.53;;;6.23;100.00
9035;BME280;4552;43.422;24.592;2024-03-08T09:51:51;100541.44;;;6.17;100.00
9035;BME280;4552;43.422;24.592;2024-03-08T09:58:17;100543.41;;;6.36;100.00
9035;BME280;4552;43.422;24.592;2024-03-08T10:01:03;100539.84;;;6.28;100.00
9035;BME280;4552;43.422;24.592;2024-03-08T10:03:31;100545.03;;;6.28;100.00
9035;BME280;4552;43.422;24.592;2024-03-08T10:06:01;100534.66;;;6.30;100.00
9035;BME280;4552;43.422;24.592;2024-03-08T10:08:42;100525.81;;;6.14;100.00
9035;BME280;4552;43.422;24.592;2024-03-08T10:11:10;100514.56;;;6.17;100.00
9035;BME280;4552;43.422;24.592;2024-03-08T10:13:38;100516.41;;;6.25;100.00
9035;BME280;4552;43.422;24.592;2024-03-08T10:16:06;100540.75;;;6.32;100.00
9035;BME280;4552;43.422;24.592;2024-03-08T10:18:34;100528.28;;;6.08;100.00
9035;BME280;4552;43.422;24.592;2024-03-08T10:21:07;100518.50;;;5.88;100.00
9035;BME280;4552;43.422;24.592;2024-03-08T10:30:19;100543.78;;;6.01;100.00
9035;BME280;4552;43.422;24.592;2024-03-08T10:32:47;100531.84;;;6.13;100.00
9035;BME280;4552;43.422;24.592;2024-03-08T10:35:14;100528.28;;;6.07;100.00
9035;BME280;4552;43.422;24.592;2024-03-08T10:37:46;100529.41;;;6.25;100.00
9035;BME280;4552;43.422;24.592;2024-03-08T10:40:16;100532.16;;;6.39;100.00
9035;BME280;4552;43.422;24.592;2024-03-08T10:42:51;100531.44;;;6.47;100.00
9035;BME280;4552;43.422;24.592;2024-03-08T10:45:35;100510.56;;;6.43;100.00
9035;BME280;4552;43.422;24.592;2024-03-08T10:48:11;100512.50;;;6.60;100.00
9035;BME280;4552;43.422;24.592;2024-03-08T10:50:43;100528.81;;;6.47;98.53
9035;BME280;4552;43.422;24.592;2024-03-08T11:03:46;100519.69;;;6.82;99.34
9035;BME280;4552;43.422;24.592;2024-03-08T11:06:15;100520.59;;;6.84;98.57
9035;BME280;4552;43.422;24.592;2024-03-08T11:08:43;100513.31;;;6.55;97.79
9035;BME280;4552;43.422;24.592;2024-03-08T11:11:27;100510.69;;;6.53;98.66
9035;BME280;4552;43.422;24.592;2024-03-08T11:13:55;100506.47;;;6.61;98.30
9035;BME280;4552;43.422;24.592;2024-03-08T11:16:43;100510.94;;;6.76;98.86
9035;BME280;4552;43.422;24.592;2024-03-08T11:19:38;100512.63;;;6.72;98.30
9035;BME280;4552;43.422;24.592;2024-03-08T12:42:21;100493.06;;;6.28;100.00
9035;BME280;4552;43.422;24.592;2024-03-08T12:44:48;100479.47;;;6.50;100.00
9035;BME280;4552;43.422;24.592;2024-03-08T12:59:54;100483.34;;;6.88;99.90
9035;BME280;4552;43.422;24.592;2024-03-08T13:02:21;100479.88;;;6.92;99.62
9035;BME280;4552;43.422;24.592;2024-03-08T13:04:49;100470.41;;;6.99;99.95
9035;BME280;4552;43.422;24.592;2024-03-08T13:07:22;100467.53;;;6.67;99.61
9035;BME280;4552;43.422;24.592;2024-03-08T13:09:51;100485.72;;;6.66;99.83
9035;BME280;4552;43.422;24.592;2024-03-08T13:12:19;100471.88;;;6.70;100.00
9035;BME280;4552;43.422;24.592;2024-03-08T13:14:46;100485.66;;;6.60;100.00
9035;BME280;4552;43.422;24.592;2024-03-08T13:17:15;100487.50;;;6.73;100.00
9035;BME280;4552;43.422;24.592;2024-03-08T13:19:43;100486.59;;;6.69;100.00
9035;BME280;4552;43.422;24.592;2024-03-08T13:22:10;100482.50;;;6.94;100.00
9035;BME280;4552;43.422;24.592;2024-03-08T13:24:39;100472.31;;;7.14;100.00
9035;BME280;4552;43.422;24.592;2024-03-08T13:27:07;100486.16;;;7.11;99.39
9035;BME280;4552;43.422;24.592;2024-03-08T13:56:42;100476.00;;;7.40;98.18
9035;BME280;4552;43.422;24.592;2024-03-08T13:59:10;100465.50;;;7.35;96.16
9035;BME280;4552;43.422;24.592;2024-03-08T14:01:39;100474.03;;;7.16;96.65
9035;BME280;4552;43.422;24.592;2024-03-08T14:04:09;100471.34;;;7.05;97.77
9035;BME280;4552;43.422;24.592;2024-03-08T14:06:36;100471.19;;;6.86;99.18
9035;BME280;4552;43.422;24.592;2024-03-08T14:09:03;100451.25;;;6.91;100.00
9035;BME280;4552;43.422;24.592;2024-03-08T14:11:33;100468.75;;;7.05;99.96
9035;BME280;4552;43.422;24.592;2024-03-08T14:14:01;100474.91;;;7.14;98.41
9035;BME280;4552;43.422;24.592;2024-03-08T14:16:28;100478.34;;;7.13;98.28
9035;BME280;4552;43.422;24.592;2024-03-08T14:18:55;100469.53;;;6.97;99.34
9035;BME280;4552;43.422;24.592;2024-03-08T14:21:23;100453.69;;;6.71;100.00
9035;BME280;4552;43.422;24.592;2024-03-08T14:23:50;100475.56;;;6.91;100.00
9035;BME280;4552;43.422;24.592;2024-03-08T14:26:17;100464.13;;;6.77;100.00
9035;BME280;4552;43.422;24.592;2024-03-08T14:28:47;100469.38;;;6.80;100.00
9035;BME280;4552;43.422;24.592;2024-03-08T14:31:18;100463.34;;;6.84;100.00
9035;BME280;4552;43.422;24.592;2024-03-08T14:33:45;100479.03;;;6.90;100.00
9035;BME280;4552;43.422;24.592;2024-03-08T14:36:14;100470.16;;;6.70;100.00
9035;BME280;4552;43.422;24.592;2024-03-08T14:38:42;100469.34;;;6.77;100.00
9035;BME280;4552;43.422;24.592;2024-03-08T14:41:09;100464.06;;;6.71;100.00
9035;BME280;4552;43.422;24.592;2024-03-08T14:43:36;100463.97;;;6.59;100.00
9035;BME280;4552;43.422;24.592;2024-03-08T14:46:03;100458.84;;;6.68;100.00
9035;BME280;4552;43.422;24.592;2024-03-08T14:48:32;100472.94;;;6.90;100.00
9035;BME280;4552;43.422;24.592;2024-03-08T14:51:02;100468.53;;;6.81;100.00
9035;BME280;4552;43.422;24.592;2024-03-08T14:53:29;100468.41;;;6.71;100.00
9035;BME280;4552;43.422;24.592;2024-03-08T14:56:13;100465.97;;;6.84;100.00
9035;BME280;4552;43.422;24.592;2024-03-08T14:58:42;100465.72;;;6.62;100.00
9035;BME280;4552;43.422;24.592;2024-03-08T15:07:54;100475.47;;;6.82;100.00
9035;BME280;4552;43.422;24.592;2024-03-08T15:10:21;100488.38;;;6.73;100.00
9035;BME280;4552;43.422;24.592;2024-03-08T15:12:51;100478.97;;;6.84;100.00
9035;BME280;4552;43.422;24.592;2024-03-08T15:15:21;100472.94;;;6.88;100.00
9035;BME280;4552;43.422;24.592;2024-03-08T15:17:50;100479.84;;;6.88;100.00
9035;BME280;4552;43.422;24.592;2024-03-08T15:20:18;100477.09;;;6.71;100.00
9035;BME280;4552;43.422;24.592;2024-03-08T15:22:50;100473.34;;;6.45;100.00
9035;BME280;4552;43.422;24.592;2024-03-08T15:25:21;100462.97;;;6.48;100.00
9035;BME280;4552;43.422;24.592;2024-03-08T15:27:51;100485.56;;;6.54;100.00
9035;BME280;4552;43.422;24.592;2024-03-08T15:30:18;100468.19;;;6.51;100.00
9035;BME280;4552;43.422;24.592;2024-03-08T15:32:48;100479.50;;;6.55;100.00
9035;BME280;4552;43.422;24.592;2024-03-08T15:35:16;100481.19;;;6.51;100.00
9035;BME280;4552;43.422;24.592;2024-03-08T15:37:46;100482.00;;;6.46;100.00
9035;BME280;4552;43.422;24.592;2024-03-08T15:40:13;100489.06;;;6.57;100.00
9035;BME280;4552;43.422;24.592;2024-03-08T15:42:55;100495.28;;;6.71;100.00
9035;BME280;4552;43.422;24.592;2024-03-08T15:45:25;100480.34;;;6.51;100.00
9035;BME280;4552;43.422;24.592;2024-03-08T15:47:53;100482.88;;;6.43;100.00
9035;BME280;4552;43.422;24.592;2024-03-08T15:50:20;100489.03;;;6.54;100.00
9035;BME280;4552;43.422;24.592;2024-03-08T15:52:48;100488.19;;;6.55;100.00
9035;BME280;4552;43.422;24.592;2024-03-08T15:55:18;100470.78;;;6.51;100.00
9035;BME280;4552;43.422;24.592;2024-03-08T15:57:50;100493.34;;;6.49;100.00
9035;BME280;4552;43.422;24.592;2024-03-08T16:00:18;100486.41;;;6.53;100.00
9035;BME280;4552;43.422;24.592;2024-03-08T16:02:59;100495.94;;;6.51;100.00
9035;BME280;4552;43.422;24.592;2024-03-08T16:05:28;100482.00;;;6.44;100.00
9035;BME280;4552;43.422;24.592;2024-03-08T17:52:31;100524.03;;;6.13;100.00
9035;BME280;4552;43.422;24.592;2024-03-08T17:54:58;100520.47;;;6.07;100.00
9035;BME280;4552;43.422;24.592;2024-03-08T17:57:25;100525.69;;;6.08;100.00
9035;BME280;4552;43.422;24.592;2024-03-08T17:59:53;100516.91;;;5.97;100.00
9035;BME280;4552;43.422;24.592;2024-03-08T18:02:20;100499.38;;;5.84;100.00
9035;BME280;4552;43.422;24.592;2024-03-08T18:04:47;100523.81;;;5.97;100.00
9035;BME280;4552;43.422;24.592;2024-03-08T18:07:14;100517.78;;;5.99;100.00
9035;BME280;4552;43.422;24.592;2024-03-08T18:09:42;100516.88;;;5.94;100.00
9035;BME280;4552;43.422;24.592;2024-03-08T18:12:11;100513.50;;;6.01;100.00
9035;BME280;4552;43.422;24.592;2024-03-08T18:14:38;100513.56;;;6.07;100.00
9035;BME280;4552;43.422;24.592;2024-03-08T18:17:05;100510.97;;;6.07;100.00
9035;BME280;4552;43.422;24.592;2024-03-08T18:19:35;100515.38;;;6.11;100.00
9035;BME280;4552;43.422;24.592;2024-03-08T18:22:02;100513.59;;;6.09;100.00
9035;BME280;4552;43.422;24.592;2024-03-08T18:24:31;100517.28;;;6.24;100.00
9035;BME280;4552;43.422;24.592;2024-03-08T18:27:01;100515.25;;;6.05;100.00
9035;BME280;4552;43.422;24.592;2024-03-08T18:29:29;100513.53;;;6.04;100.00
9035;BME280;4552;43.422;24.592;2024-03-08T18:31:59;100502.03;;;5.87;100.00
9035;BME280;4552;43.422;24.592;2024-03-08T18:34:27;100516.69;;;5.82;100.00
9035;BME280;4552;43.422;24.592;2024-03-08T18:37:02;100520.94;;;5.80;100.00
9035;BME280;4552;43.422;24.592;2024-03-08T18:39:30;100530.34;;;5.72;100.00
9035;BME280;4552;43.422;24.592;2024-03-08T18:41:57;100515.41;;;5.58;100.00
9035;BME280;4552;43.422;24.592;2024-03-08T18:44:25;100528.38;;;5.56;100.00
9035;BME280;4552;43.422;24.592;2024-03-08T18:46:52;100531.69;;;5.48;100.00
9035;BME280;4552;43.422;24.592;2024-03-08T18:49:22;100525.69;;;5.50;100.00
9035;BME280;4552;43.422;24.592;2024-03-08T20:59:19;100473.72;;;4.47;100.00
9035;BME280;4552;43.422;24.592;2024-03-08T21:01:48;100483.13;;;4.44;100.00
9035;BME280;4552;43.422;24.592;2024-03-08T21:04:17;100497.81;;;4.45;100.00
9035;BME280;4552;43.422;24.592;2024-03-08T21:06:44;100488.44;;;4.50;100.00
9035;BME280;4552;43.422;24.592;2024-03-08T21:09:11;100493.63;;;4.51;100.00
9035;BME280;4552;43.422;24.592;2024-03-08T21:11:38;100478.50;;;4.28;100.00
9035;BME280;4552;43.422;24.592;2024-03-08T21:14:06;100497.66;;;4.37;100.00
9035;BME280;4552;43.422;24.592;2024-03-08T21:16:37;100482.91;;;4.32;100.00
9035;BME280;4552;43.422;24.592;2024-03-08T21:19:04;100473.19;;;4.20;100.00
9035;BME280;4552;43.422;24.592;2024-03-08T21:21:32;100487.25;;;4.34;100.00
9035;BME280;4552;43.422;24.592;2024-03-08T21:23:59;100481.94;;;4.28;100.00
9035;BME280;4552;43.422;24.592;2024-03-08T21:26:26;100493.31;;;4.35;100.00
9035;BME280;4552;43.422;24.592;2024-03-08T21:28:53;100495.00;;;4.33;100.00
9035;BME280;4552;43.422;24.592;2024-03-08T21:31:19;100497.53;;;4.30;100.00
9035;BME280;4552;43.422;24.592;2024-03-08T21:33:50;100486.94;;;4.19;100.00
9035;BME280;4552;43.422;24.592;2024-03-08T21:36:18;100496.53;;;4.22;100.00
9035;BME280;4552;43.422;24.592;2024-03-08T21:38:45;100490.56;;;4.27;100.00
9035;BME280;4552;43.422;24.592;2024-03-08T21:41:12;100486.16;;;4.22;100.00
9035;BME280;4552;43.422;24.592;2024-03-08T21:43:39;100501.69;;;4.22;100.00
9035;BME280;4552;43.422;24.592;2024-03-08T21:46:05;100495.38;;;4.09;100.00
9035;BME280;4552;43.422;24.592;2024-03-08T21:48:34;100499.56;;;4.03;100.00
9035;BME280;4552;43.422;24.592;2024-03-08T21:51:02;100493.31;;;3.95;100.00
9035;BME280;4552;43.422;24.592;2024-03-08T21:53:31;100503.72;;;3.96;100.00
9035;BME280;4552;43.422;24.592;2024-03-08T21:55:59;100495.78;;;3.89;100.00
9035;BME280;4552;43.422;24.592;2024-03-08T22:40:58;100472.94;;;3.32;100.00
9035;BME280;4552;43.422;24.592;2024-03-08T22:43:25;100474.97;;;3.10;100.00
9035;BME280;4552;43.422;24.592;2024-03-08T22:45:51;100451.19;;;2.89;100.00
9035;BME280;4552;43.422;24.592;2024-03-08T22:48:19;100469.41;;;2.93;100.00
9035;BME280;4552;43.422;24.592;2024-03-08T22:50:46;100463.97;;;2.84;100.00
9035;BME280;4552;43.422;24.592;2024-03-08T22:53:12;100463.88;;;2.81;100.00
9035;BME280;4552;43.422;24.592;2024-03-08T22:55:40;100465.72;;;2.85;100.00
9035;BME280;4552;43.422;24.592;2024-03-08T22:58:09;100465.50;;;2.76;100.00
9035;BME280;4552;43.422;24.592;2024-03-08T23:00:35;100453.16;;;2.66;100.00
9035;BME280;4552;43.422;24.592;2024-03-08T23:03:22;100452.16;;;2.60;100.00
9035;BME280;4552;43.422;24.592;2024-03-08T23:05:50;100459.94;;;2.61;100.00
9035;BME280;4552;43.422;24.592;2024-03-08T23:08:18;100456.31;;;2.55;100.00
9035;BME280;4552;43.422;24.592;2024-03-08T23:10:45;100457.16;;;2.55;100.00
9035;BME280;4552;43.422;24.592;2024-03-08T23:13:14;100457.94;;;2.51;100.00
9035;BME280;4552;43.422;24.592;2024-03-08T23:15:41;100430.91;;;2.39;100.00
9035;BME280;4552;43.422;24.592;2024-03-08T23:18:09;100441.41;;;2.45;100.00
9035;BME280;4552;43.422;24.592;2024-03-08T23:20:38;100448.34;;;2.46;100.00
9035;BME280;4552;43.422;24.592;2024-03-08T23:23:08;100450.78;;;2.41;100.00
9035;BME280;4552;43.422;24.592;2024-03-08T23:25:35;100447.19;;;2.36;100.00
9035;BME280;4552;43.422;24.592;2024-03-08T23:28:03;100454.09;;;2.37;100.00
9035;BME280;4552;43.422;24.592;2024-03-08T23:30:34;100432.56;;;2.35;100.00
9035;BME280;4552;43.422;24.592;2024-03-08T23:33:05;100440.19;;;2.31;100.00
9035;BME280;4552;43.422;24.592;2024-03-08T23:35:33;100442.28;;;2.45;100.00
9035;BME280;4552;43.422;24.592;2024-03-08T23:38:01;100435.22;;;2.38;100.00
